Portada
METAR-TAF:

METAR-TAF

Aeropuertos :

Buochs, Suiza

latitud: 46-58-28N, longitud: 8-23-49E, altitud: 449 m

Observación

El informe se hizo hace 35 minutos, a las 06:50 UTC
Viento 3 kt del suroeste
Temperatura 2°C
Humedad 80%
Presión 1031 hPa
Visibilidad 10 km o más
sin nubes por debajo de 1500 m y sin presencia de cumulonimbus.

METAR: LSZC 250650Z 22003KT CAVOK 02/M01 Q1031

Hora: 08:25 (07:25 UTC)

Pronóstico

El informe se hizo hace 2 horas y 0 minutos, a las 05:25 UTC
Pronóstico válido del 25 a las 06 UTC al 25 a las 15 UTC
Viento 3 kt del oeste-suroeste
Visibilidad 10 km o más
sin nubes por debajo de 1500 m y sin presencia de cumulonimbus.

TAF: LSZC 250525Z 2506/2515 24003KT CAVOK

Observaciones y pronósticos meteorológicos de más de 4000 aeropuertos (mensajes METAR y TAF).

Los puntos amarillos y rojos representan las estaciones disponibles.

Ponga el ratón en el punto deseado para ver el nombre de la estación.

Haga clic para ver las observaciones y los pronósticos meteorológicos.

Para cambiar el mapa : haga clic en los botones verdes con una cruz de color negro para hacer un zoom, en el botón verde con un guión para alejar o en las flechas verdes para mapas adyacentes.


METAR-TAF: